sensor_id;sensor_type;location;lat;lon;timestamp;pressure;altitude;pressure_sealevel;temperature;humidity
55604;BME280;41468;48.838;9.330;2023-02-19T00:01:20;98874.59;;;9.70;100.00
55604;BME280;41468;48.838;9.330;2023-02-19T00:03:50;98868.78;;;9.72;100.00
55604;BME280;41468;48.838;9.330;2023-02-19T00:06:18;98865.63;;;9.70;100.00
55604;BME280;41468;48.838;9.330;2023-02-19T00:08:45;98855.50;;;9.70;100.00
55604;BME280;41468;48.838;9.330;2023-02-19T00:11:18;98862.00;;;9.66;100.00
55604;BME280;41468;48.838;9.330;2023-02-19T00:13:47;98863.13;;;9.65;100.00
55604;BME280;41468;48.838;9.330;2023-02-19T00:16:16;98860.59;;;9.72;100.00
55604;BME280;41468;48.838;9.330;2023-02-19T00:18:44;98855.50;;;9.70;100.00
55604;BME280;41468;48.838;9.330;2023-02-19T00:21:11;98854.09;;;9.77;100.00
55604;BME280;41468;48.838;9.330;2023-02-19T00:23:38;98853.03;;;9.65;100.00
55604;BME280;41468;48.838;9.330;2023-02-19T00:26:08;98848.97;;;9.75;100.00
55604;BME280;41468;48.838;9.330;2023-02-19T00:28:44;98854.09;;;9.77;100.00
55604;BME280;41468;48.838;9.330;2023-02-19T00:31:23;98852.53;;;9.76;100.00
55604;BME280;41468;48.838;9.330;2023-02-19T00:33:53;98852.59;;;9.79;100.00
55604;BME280;41468;48.838;9.330;2023-02-19T00:36:21;98853.16;;;9.85;100.00
55604;BME280;41468;48.838;9.330;2023-02-19T00:38:48;98853.22;;;9.72;100.00
55604;BME280;41468;48.838;9.330;2023-02-19T00:41:17;98863.19;;;9.81;100.00
55604;BME280;41468;48.838;9.330;2023-02-19T00:43:55;98859.38;;;9.85;100.00
55604;BME280;41468;48.838;9.330;2023-02-19T00:46:31;98863.19;;;9.81;100.00
55604;BME280;41468;48.838;9.330;2023-02-19T00:48:58;98869.66;;;9.76;100.00
55604;BME280;41468;48.838;9.330;2023-02-19T00:51:28;98865.09;;;9.80;100.00
55604;BME280;41468;48.838;9.330;2023-02-19T00:53:56;98863.19;;;9.81;100.00
55604;BME280;41468;48.838;9.330;2023-02-19T00:56:22;98868.97;;;9.79;100.00
55604;BME280;41468;48.838;9.330;2023-02-19T00:58:49;98864.31;;;9.80;100.00
55604;BME280;41468;48.838;9.330;2023-02-19T01:01:17;98859.56;;;9.77;100.00
55604;BME280;41468;48.838;9.330;2023-02-19T01:03:45;98853.09;;;9.69;100.00
55604;BME280;41468;48.838;9.330;2023-02-19T01:06:13;98845.47;;;9.74;100.00
55604;BME280;41468;48.838;9.330;2023-02-19T01:08:40;98835.97;;;9.68;100.00
55604;BME280;41468;48.838;9.330;2023-02-19T01:11:08;98841.31;;;9.65;100.00
55604;BME280;41468;48.838;9.330;2023-02-19T01:13:40;98836.41;;;9.70;100.00
55604;BME280;41468;48.838;9.330;2023-02-19T01:18:34;98825.66;;;9.62;100.00
55604;BME280;41468;48.838;9.330;2023-02-19T01:21:08;98827.59;;;9.61;100.00
55604;BME280;41468;48.838;9.330;2023-02-19T01:23:38;98825.97;;;9.72;100.00
55604;BME280;41468;48.838;9.330;2023-02-19T01:26:06;98828.94;;;9.67;100.00
55604;BME280;41468;48.838;9.330;2023-02-19T01:28:33;98821.09;;;9.66;100.00
55604;BME280;41468;48.838;9.330;2023-02-19T01:31:05;98820.38;;;9.69;100.00
55604;BME280;41468;48.838;9.330;2023-02-19T01:33:33;98817.41;;;9.74;100.00
55604;BME280;41468;48.838;9.330;2023-02-19T01:36:04;98821.53;;;9.68;100.00
55604;BME280;41468;48.838;9.330;2023-02-19T01:38:30;98812.91;;;9.66;100.00
55604;BME280;41468;48.838;9.330;2023-02-19T01:40:59;98809.94;;;9.71;100.00
55604;BME280;41468;48.838;9.330;2023-02-19T01:43:26;98809.22;;;9.74;100.00
55604;BME280;41468;48.838;9.330;2023-02-19T01:45:53;98818.91;;;9.71;100.00
55604;BME280;41468;48.838;9.330;2023-02-19T01:48:30;98810.47;;;9.77;100.00
55604;BME280;41468;48.838;9.330;2023-02-19T01:51:05;98806.88;;;9.72;100.00
55604;BME280;41468;48.838;9.330;2023-02-19T01:53:36;98814.59;;;9.70;100.00
55604;BME280;41468;48.838;9.330;2023-02-19T01:56:05;98806.31;;;9.67;100.00
55604;BME280;41468;48.838;9.330;2023-02-19T01:58:34;98797.78;;;9.68;100.00
55604;BME280;41468;48.838;9.330;2023-02-19T02:01:04;98800.50;;;9.68;100.00
55604;BME280;41468;48.838;9.330;2023-02-19T02:03:39;98803.16;;;9.65;100.00
55604;BME280;41468;48.838;9.330;2023-02-19T02:06:12;98800.19;;;9.70;100.00
55604;BME280;41468;48.838;9.330;2023-02-19T02:08:41;98809.41;;;9.81;100.00
55604;BME280;41468;48.838;9.330;2023-02-19T02:11:26;98798.84;;;9.80;100.00
55604;BME280;41468;48.838;9.330;2023-02-19T02:13:53;98804.75;;;9.82;100.00
55604;BME280;41468;48.838;9.330;2023-02-19T02:16:42;98802.63;;;9.91;100.00
55604;BME280;41468;48.838;9.330;2023-02-19T02:19:44;98806.00;;;9.84;100.00
55604;BME280;41468;48.838;9.330;2023-02-19T02:22:41;98797.44;;;9.86;100.00
55604;BME280;41468;48.838;9.330;2023-02-19T02:26:19;98795.41;;;9.83;100.00
55604;BME280;41468;48.838;9.330;2023-02-19T02:28:27;98792.81;;;9.86;100.00
55604;BME280;41468;48.838;9.330;2023-02-19T02:31:12;98783.38;;;9.84;100.00
55604;BME280;41468;48.838;9.330;2023-02-19T02:33:52;98781.25;;;9.77;100.00
55604;BME280;41468;48.838;9.330;2023-02-19T02:36:29;98774.31;;;9.80;100.00
55604;BME280;41468;48.838;9.330;2023-02-19T02:38:56;98777.03;;;9.80;100.00
55604;BME280;41468;48.838;9.330;2023-02-19T02:41:24;98774.47;;;9.71;100.00
55604;BME280;41468;48.838;9.330;2023-02-19T02:43:50;98773.59;;;9.67;100.00
55604;BME280;41468;48.838;9.330;2023-02-19T02:46:25;98773.06;;;9.61;100.00
55604;BME280;41468;48.838;9.330;2023-02-19T02:48:56;98775.69;;;9.58;100.00
55604;BME280;41468;48.838;9.330;2023-02-19T02:51:39;98772.00;;;9.66;100.00
55604;BME280;41468;48.838;9.330;2023-02-19T02:54:17;98764.81;;;9.73;100.00
55604;BME280;41468;48.838;9.330;2023-02-19T02:57:05;98772.78;;;9.66;100.00
55604;BME280;41468;48.838;9.330;2023-02-19T02:59:37;98772.53;;;9.71;100.00
55604;BME280;41468;48.838;9.330;2023-02-19T03:02:17;98771.31;;;9.69;100.00
55604;BME280;41468;48.838;9.330;2023-02-19T03:10:23;98766.56;;;9.66;100.00
55604;BME280;41468;48.838;9.330;2023-02-19T03:12:53;98765.78;;;9.65;100.00
55604;BME280;41468;48.838;9.330;2023-02-19T03:15:48;98766.13;;;9.80;100.00
55604;BME280;41468;48.838;9.330;2023-02-19T03:18:49;98765.50;;;9.70;100.00
55604;BME280;41468;48.838;9.330;2023-02-19T03:21:37;98760.31;;;9.65;100.00
55604;BME280;41468;48.838;9.330;2023-02-19T03:24:08;98760.41;;;9.69;100.00
55604;BME280;41468;48.838;9.330;2023-02-19T03:26:57;98759.53;;;9.65;100.00
55604;BME280;41468;48.838;9.330;2023-02-19T03:29:26;98763.63;;;9.59;100.00
55604;BME280;41468;48.838;9.330;2023-02-19T03:31:58;98758.00;;;9.51;100.00
55604;BME280;41468;48.838;9.330;2023-02-19T03:34:53;98767.44;;;9.54;100.00
55604;BME280;41468;48.838;9.330;2023-02-19T03:37:26;98763.09;;;9.53;100.00
55604;BME280;41468;48.838;9.330;2023-02-19T03:39:56;98759.78;;;9.60;100.00
55604;BME280;41468;48.838;9.330;2023-02-19T03:42:56;98759.00;;;9.59;100.00
55604;BME280;41468;48.838;9.330;2023-02-19T03:45:44;98755.47;;;9.59;100.00
55604;BME280;41468;48.838;9.330;2023-02-19T03:48:28;98769.09;;;9.59;100.00
55604;BME280;41468;48.838;9.330;2023-02-19T03:51:06;98767.97;;;9.60;100.00
55604;BME280;41468;48.838;9.330;2023-02-19T03:54:11;98769.25;;;9.50;100.00
55604;BME280;41468;48.838;9.330;2023-02-19T03:59:32;98774.25;;;9.48;100.00
55604;BME280;41468;48.838;9.330;2023-02-19T04:02:05;98773.91;;;9.49;100.00
55604;BME280;41468;48.838;9.330;2023-02-19T04:04:35;98782.88;;;9.50;100.00
55604;BME280;41468;48.838;9.330;2023-02-19T04:07:03;98774.78;;;9.54;100.00
55604;BME280;41468;48.838;9.330;2023-02-19T04:09:35;98780.53;;;9.48;100.00
55604;BME280;41468;48.838;9.330;2023-02-19T04:12:04;98778.22;;;9.50;100.00
55604;BME280;41468;48.838;9.330;2023-02-19T04:14:37;98791.97;;;9.54;100.00
55604;BME280;41468;48.838;9.330;2023-02-19T04:17:08;98793.09;;;9.53;100.00
55604;BME280;41468;48.838;9.330;2023-02-19T04:19:39;98795.66;;;9.46;100.00
55604;BME280;41468;48.838;9.330;2023-02-19T04:22:09;98800.44;;;9.65;100.00
55604;BME280;41468;48.838;9.330;2023-02-19T04:24:40;98799.00;;;9.55;100.00
55604;BME280;41468;48.838;9.330;2023-02-19T04:27:08;98797.13;;;9.43;100.00
55604;BME280;41468;48.838;9.330;2023-02-19T04:29:35;98794.50;;;9.47;100.00
55604;BME280;41468;48.838;9.330;2023-02-19T04:32:04;98800.19;;;9.42;100.00
55604;BME280;41468;48.838;9.330;2023-02-19T04:34:32;98804.50;;;9.43;100.00
55604;BME280;41468;48.838;9.330;2023-02-19T04:36:58;98809.03;;;9.51;100.00
55604;BME280;41468;48.838;9.330;2023-02-19T04:39:25;98818.31;;;9.50;100.00
55604;BME280;41468;48.838;9.330;2023-02-19T04:41:51;98805.16;;;9.52;100.00
55604;BME280;41468;48.838;9.330;2023-02-19T04:44:18;98825.00;;;9.52;100.00
55604;BME280;41468;48.838;9.330;2023-02-19T04:46:44;98817.09;;;9.47;100.00
55604;BME280;41468;48.838;9.330;2023-02-19T04:49:11;98826.50;;;9.50;100.00
55604;BME280;41468;48.838;9.330;2023-02-19T04:51:38;98834.44;;;9.55;100.00
55604;BME280;41468;48.838;9.330;2023-02-19T04:54:05;98829.47;;;9.45;100.00
55604;BME280;41468;48.838;9.330;2023-02-19T04:56:32;98838.66;;;9.52;100.00
55604;BME280;41468;48.838;9.330;2023-02-19T04:58:58;98845.13;;;9.48;100.00
55604;BME280;41468;48.838;9.330;2023-02-19T05:01:25;98840.44;;;9.61;100.00
55604;BME280;41468;48.838;9.330;2023-02-19T05:03:52;98838.94;;;9.63;100.00
55604;BME280;41468;48.838;9.330;2023-02-19T05:06:18;98840.38;;;9.45;100.00
55604;BME280;41468;48.838;9.330;2023-02-19T05:08:45;98834.59;;;9.46;100.00
55604;BME280;41468;48.838;9.330;2023-02-19T05:11:11;98844.25;;;9.44;100.00
55604;BME280;41468;48.838;9.330;2023-02-19T05:13:39;98836.78;;;9.41;100.00
55604;BME280;41468;48.838;9.330;2023-02-19T05:16:11;98846.06;;;9.40;100.00
55604;BME280;41468;48.838;9.330;2023-02-19T05:18:42;98847.47;;;9.34;100.00
55604;BME280;41468;48.838;9.330;2023-02-19T05:21:10;98845.69;;;9.25;100.00
55604;BME280;41468;48.838;9.330;2023-02-19T05:23:38;98844.66;;;9.18;100.00
55604;BME280;41468;48.838;9.330;2023-02-19T05:26:06;98838.34;;;9.14;100.00
55604;BME280;41468;48.838;9.330;2023-02-19T05:28:33;98848.19;;;9.18;100.00
55604;BME280;41468;48.838;9.330;2023-02-19T05:31:04;98839.91;;;9.15;100.00
55604;BME280;41468;48.838;9.330;2023-02-19T05:33:32;98840.25;;;9.13;100.00
55604;BME280;41468;48.838;9.330;2023-02-19T05:35:58;98843.09;;;9.17;100.00
55604;BME280;41468;48.838;9.330;2023-02-19T05:38:25;98848.56;;;9.04;100.00
55604;BME280;41468;48.838;9.330;2023-02-19T05:40:51;98842.09;;;9.09;100.00
55604;BME280;41468;48.838;9.330;2023-02-19T05:43:18;98848.47;;;9.01;100.00
55604;BME280;41468;48.838;9.330;2023-02-19T05:45:44;98856.72;;;9.04;100.00
55604;BME280;41468;48.838;9.330;2023-02-19T05:48:22;98856.41;;;8.94;100.00
55604;BME280;41468;48.838;9.330;2023-02-19T05:50:49;98866.16;;;9.07;100.00
55604;BME280;41468;48.838;9.330;2023-02-19T05:53:15;98860.16;;;9.01;100.00
55604;BME280;41468;48.838;9.330;2023-02-19T05:55:42;98857.09;;;9.03;100.00
55604;BME280;41468;48.838;9.330;2023-02-19T05:58:08;98863.44;;;9.07;100.00
55604;BME280;41468;48.838;9.330;2023-02-19T06:00:35;98866.16;;;9.07;100.00
55604;BME280;41468;48.838;9.330;2023-02-19T06:03:02;98866.84;;;9.04;100.00
55604;BME280;41468;48.838;9.330;2023-02-19T06:05:28;98872.28;;;9.04;100.00
55604;BME280;41468;48.838;9.330;2023-02-19T06:07:55;98870.03;;;9.06;100.00
55604;BME280;41468;48.838;9.330;2023-02-19T06:10:22;98875.94;;;9.08;100.00
55604;BME280;41468;48.838;9.330;2023-02-19T06:12:51;98870.34;;;9.04;100.00
55604;BME280;41468;48.838;9.330;2023-02-19T06:15:19;98875.34;;;9.02;100.00
55604;BME280;41468;48.838;9.330;2023-02-19T06:17:45;98879.44;;;8.96;100.00
55604;BME280;41468;48.838;9.330;2023-02-19T06:20:12;98878.19;;;8.94;100.00
55604;BME280;41468;48.838;9.330;2023-02-19T06:22:43;98896.56;;;8.97;100.00
55604;BME280;41468;48.838;9.330;2023-02-19T06:25:10;98907.25;;;9.02;100.00
55604;BME280;41468;48.838;9.330;2023-02-19T06:27:38;98899.06;;;9.02;100.00
55604;BME280;41468;48.838;9.330;2023-02-19T06:30:05;98901.34;;;9.00;100.00
55604;BME280;41468;48.838;9.330;2023-02-19T06:32:31;98882.59;;;9.11;100.00
55604;BME280;41468;48.838;9.330;2023-02-19T06:34:58;98889.78;;;9.03;100.00
55604;BME280;41468;48.838;9.330;2023-02-19T06:37:25;98892.94;;;9.05;100.00
55604;BME280;41468;48.838;9.330;2023-02-19T06:39:51;98900.31;;;9.04;100.00
55604;BME280;41468;48.838;9.330;2023-02-19T06:42:18;98895.56;;;9.01;100.00
55604;BME280;41468;48.838;9.330;2023-02-19T06:44:44;98890.22;;;9.05;100.00
55604;BME280;41468;48.838;9.330;2023-02-19T06:47:11;98912.47;;;9.07;100.00
55604;BME280;41468;48.838;9.330;2023-02-19T06:49:38;98907.38;;;9.05;100.00
55604;BME280;41468;48.838;9.330;2023-02-19T06:52:05;98916.09;;;9.11;100.00
55604;BME280;41468;48.838;9.330;2023-02-19T06:54:32;98927.09;;;9.15;100.00
55604;BME280;41468;48.838;9.330;2023-02-19T06:56:59;98935.38;;;9.18;98.40
55604;BME280;41468;48.838;9.330;2023-02-19T06:59:25;98929.69;;;9.23;97.55
55604;BME280;41468;48.838;9.330;2023-02-19T07:01:52;98937.22;;;9.14;98.33
55604;BME280;41468;48.838;9.330;2023-02-19T07:04:18;98934.25;;;9.19;96.04
55604;BME280;41468;48.838;9.330;2023-02-19T07:06:45;98935.03;;;9.20;97.06
55604;BME280;41468;48.838;9.330;2023-02-19T07:09:12;98944.78;;;9.21;95.34
55604;BME280;41468;48.838;9.330;2023-02-19T07:11:39;98946.81;;;9.24;95.54
55604;BME280;41468;48.838;9.330;2023-02-19T07:14:15;98936.63;;;9.21;95.10
55604;BME280;41468;48.838;9.330;2023-02-19T07:16:43;98940.13;;;9.21;97.09
55604;BME280;41468;48.838;9.330;2023-02-19T07:19:09;98947.88;;;9.19;95.40
55604;BME280;41468;48.838;9.330;2023-02-19T07:21:37;98951.50;;;9.23;94.97
55604;BME280;41468;48.838;9.330;2023-02-19T07:24:04;98968.53;;;9.20;94.86
55604;BME280;41468;48.838;9.330;2023-02-19T07:26:31;98964.66;;;9.21;94.77
55604;BME280;41468;48.838;9.330;2023-02-19T07:28:58;98962.75;;;9.22;95.75
55604;BME280;41468;48.838;9.330;2023-02-19T07:31:24;98969.00;;;9.22;95.21
55604;BME280;41468;48.838;9.330;2023-02-19T07:33:56;98969.78;;;9.23;95.25
55604;BME280;41468;48.838;9.330;2023-02-19T07:36:27;98962.38;;;9.23;95.51
55604;BME280;41468;48.838;9.330;2023-02-19T07:38:55;98968.75;;;9.27;95.50
55604;BME280;41468;48.838;9.330;2023-02-19T07:41:23;98964.00;;;9.24;95.09
55604;BME280;41468;48.838;9.330;2023-02-19T07:43:50;98971.13;;;9.29;94.34
55604;BME280;41468;48.838;9.330;2023-02-19T07:46:17;98968.84;;;9.31;94.13
55604;BME280;41468;48.838;9.330;2023-02-19T07:48:44;98971.03;;;9.38;94.41
55604;BME280;41468;48.838;9.330;2023-02-19T07:51:14;98970.00;;;9.30;94.65
55604;BME280;41468;48.838;9.330;2023-02-19T07:53:48;98973.75;;;9.38;94.35
55604;BME280;41468;48.838;9.330;2023-02-19T07:56:18;98977.81;;;9.44;93.88
55604;BME280;41468;48.838;9.330;2023-02-19T07:58:45;98988.72;;;9.44;95.43
55604;BME280;41468;48.838;9.330;2023-02-19T08:01:17;98990.06;;;9.50;94.50
55604;BME280;41468;48.838;9.330;2023-02-19T08:03:44;98985.78;;;9.37;94.68
55604;BME280;41468;48.838;9.330;2023-02-19T08:06:16;98978.75;;;9.36;95.18
55604;BME280;41468;48.838;9.330;2023-02-19T08:08:42;98974.53;;;9.38;92.39
55604;BME280;41468;48.838;9.330;2023-02-19T08:11:09;98983.16;;;9.40;93.86
55604;BME280;41468;48.838;9.330;2023-02-19T08:13:54;98987.47;;;9.41;94.02
55604;BME280;41468;48.838;9.330;2023-02-19T08:16:29;99000.31;;;9.41;93.19
55604;BME280;41468;48.838;9.330;2023-02-19T08:19:08;99003.38;;;9.39;93.15
55604;BME280;41468;48.838;9.330;2023-02-19T08:21:35;99010.75;;;9.39;92.28
55604;BME280;41468;48.838;9.330;2023-02-19T08:24:02;99010.19;;;9.33;92.45
55604;BME280;41468;48.838;9.330;2023-02-19T08:26:28;99009.41;;;9.33;93.29
55604;BME280;41468;48.838;9.330;2023-02-19T08:28:55;99007.81;;;9.44;92.07
55604;BME280;41468;48.838;9.330;2023-02-19T08:31:21;99023.25;;;9.40;92.69
55604;BME280;41468;48.838;9.330;2023-02-19T08:33:48;99024.63;;;9.34;92.99
55604;BME280;41468;48.838;9.330;2023-02-19T08:36:15;99016.44;;;9.34;93.92
55604;BME280;41468;48.838;9.330;2023-02-19T08:38:41;99022.81;;;9.38;94.04
55604;BME280;41468;48.838;9.330;2023-02-19T08:41:13;99023.78;;;9.45;94.62
55604;BME280;41468;48.838;9.330;2023-02-19T08:43:40;99027.91;;;9.39;93.83
55604;BME280;41468;48.838;9.330;2023-02-19T08:46:09;99024.50;;;9.42;93.18
55604;BME280;41468;48.838;9.330;2023-02-19T08:48:36;99010.63;;;9.47;92.38
55604;BME280;41468;48.838;9.330;2023-02-19T08:51:06;99011.63;;;9.55;91.17
55604;BME280;41468;48.838;9.330;2023-02-19T08:53:35;99019.03;;;9.55;89.88
55604;BME280;41468;48.838;9.330;2023-02-19T08:56:10;99027.31;;;9.58;90.71
55604;BME280;41468;48.838;9.330;2023-02-19T08:58:37;99023.47;;;9.59;89.55
55604;BME280;41468;48.838;9.330;2023-02-19T09:01:12;99032.28;;;9.68;87.22
55604;BME280;41468;48.838;9.330;2023-02-19T09:03:40;99037.06;;;9.71;86.81
55604;BME280;41468;48.838;9.330;2023-02-19T09:06:08;99042.06;;;9.69;86.54
55604;BME280;41468;48.838;9.330;2023-02-19T09:08:41;99047.28;;;9.74;89.27
55604;BME280;41468;48.838;9.330;2023-02-19T09:11:07;99050.22;;;9.69;88.25
55604;BME280;41468;48.838;9.330;2023-02-19T09:13:35;99055.03;;;9.72;87.06
55604;BME280;41468;48.838;9.330;2023-02-19T09:16:03;99059.78;;;9.76;85.64
55604;BME280;41468;48.838;9.330;2023-02-19T09:18:41;99066.38;;;9.74;86.85
55604;BME280;41468;48.838;9.330;2023-02-19T09:21:08;99063.88;;;9.82;85.79
55604;BME280;41468;48.838;9.330;2023-02-19T09:23:35;99070.34;;;9.89;86.44
55604;BME280;41468;48.838;9.330;2023-02-19T09:26:03;99067.25;;;9.91;85.35
55604;BME280;41468;48.838;9.330;2023-02-19T09:28:32;99070.44;;;9.93;84.12
55604;BME280;41468;48.838;9.330;2023-02-19T09:31:03;99081.78;;;9.95;85.19
55604;BME280;41468;48.838;9.330;2023-02-19T09:33:30;99082.69;;;9.99;85.88
55604;BME280;41468;48.838;9.330;2023-02-19T09:35:58;99080.53;;;10.05;84.39
55604;BME280;41468;48.838;9.330;2023-02-19T09:38:26;99077.81;;;10.05;83.24
55604;BME280;41468;48.838;9.330;2023-02-19T09:40:53;99069.16;;;10.03;82.64
55604;BME280;41468;48.838;9.330;2023-02-19T09:43:21;99073.84;;;10.02;81.73
55604;BME280;41468;48.838;9.330;2023-02-19T09:45:49;99076.56;;;10.02;81.87
55604;BME280;41468;48.838;9.330;2023-02-19T09:48:21;99078.03;;;10.00;81.50
55604;BME280;41468;48.838;9.330;2023-02-19T09:50:48;99081.28;;;10.17;81.99
55604;BME280;41468;48.838;9.330;2023-02-19T09:53:22;99068.00;;;10.16;79.73
55604;BME280;41468;48.838;9.330;2023-02-19T09:55:51;99063.88;;;10.22;80.43
55604;BME280;41468;48.838;9.330;2023-02-19T09:58:25;99072.38;;;10.33;80.20
55604;BME280;41468;48.838;9.330;2023-02-19T10:00:54;99075.75;;;10.42;79.14
55604;BME280;41468;48.838;9.330;2023-02-19T10:03:26;99073.59;;;10.64;77.12
55604;BME280;41468;48.838;9.330;2023-02-19T10:06:00;99078.13;;;10.72;77.70
55604;BME280;41468;48.838;9.330;2023-02-19T10:08:31;99083.78;;;10.79;74.56
55604;BME280;41468;48.838;9.330;2023-02-19T10:11:00;99078.16;;;10.88;75.76
55604;BME280;41468;48.838;9.330;2023-02-19T10:13:32;99071.72;;;10.96;73.40
55604;BME280;41468;48.838;9.330;2023-02-19T10:16:02;99071.03;;;11.15;71.45
55604;BME280;41468;48.838;9.330;2023-02-19T10:18:40;99077.31;;;11.15;72.03
55604;BME280;41468;48.838;9.330;2023-02-19T10:21:26;99080.03;;;11.15;71.92
55604;BME280;41468;48.838;9.330;2023-02-19T10:23:58;99075.34;;;11.16;72.75
55604;BME280;41468;48.838;9.330;2023-02-19T10:26:25;99082.84;;;11.19;69.56
55604;BME280;41468;48.838;9.330;2023-02-19T10:28:53;99087.16;;;11.20;67.98
55604;BME280;41468;48.838;9.330;2023-02-19T10:31:23;99090.84;;;11.12;69.62
55604;BME280;41468;48.838;9.330;2023-02-19T10:34:00;99091.75;;;11.16;70.39
55604;BME280;41468;48.838;9.330;2023-02-19T10:39:00;99097.22;;;11.16;70.24
55604;BME280;41468;48.838;9.330;2023-02-19T10:41:40;99107.44;;;11.19;70.90
55604;BME280;41468;48.838;9.330;2023-02-19T10:44:21;99114.41;;;11.16;69.60
55604;BME280;41468;48.838;9.330;2023-02-19T10:46:51;99114.94;;;11.22;69.57
55604;BME280;41468;48.838;9.330;2023-02-19T10:49:27;99111.69;;;11.16;69.38
55604;BME280;41468;48.838;9.330;2023-02-19T10:51:59;99113.25;;;11.17;70.53
55604;BME280;41468;48.838;9.330;2023-02-19T10:54:31;99120.59;;;11.13;69.97
55604;BME280;41468;48.838;9.330;2023-02-19T10:59:49;99123.31;;;11.13;70.92
55604;BME280;41468;48.838;9.330;2023-02-19T11:02:18;99113.44;;;11.09;69.28
55604;BME280;41468;48.838;9.330;2023-02-19T11:07:28;99123.84;;;11.03;70.65
55604;BME280;41468;48.838;9.330;2023-02-19T11:09:55;99113.44;;;11.09;70.74
55604;BME280;41468;48.838;9.330;2023-02-19T11:12:25;99119.16;;;11.03;69.98
55604;BME280;41468;48.838;9.330;2023-02-19T11:14:53;99121.19;;;11.06;69.78
55604;BME280;41468;48.838;9.330;2023-02-19T11:17:27;99128.72;;;11.10;71.19
55604;BME280;41468;48.838;9.330;2023-02-19T11:19:57;99128.50;;;11.02;70.76
55604;BME280;41468;48.838;9.330;2023-02-19T11:22:31;99127.31;;;10.88;70.24
55604;BME280;41468;48.838;9.330;2023-02-19T11:32:53;99134.41;;;10.60;75.71
55604;BME280;41468;48.838;9.330;2023-02-19T11:35:24;99129.84;;;11.09;82.74
55604;BME280;41468;48.838;9.330;2023-02-19T11:37:58;99123.75;;;10.71;75.72
55604;BME280;41468;48.838;9.330;2023-02-19T11:40:36;99132.50;;;10.77;74.22
55604;BME280;41468;48.838;9.330;2023-02-19T11:45:55;99140.81;;;10.80;74.67
55604;BME280;41468;48.838;9.330;2023-02-19T11:48:34;99148.16;;;10.92;74.80
55604;BME280;41468;48.838;9.330;2023-02-19T11:51:22;99146.69;;;11.11;71.75
55604;BME280;41468;48.838;9.330;2023-02-19T11:54:09;99155.06;;;11.18;71.08
55604;BME280;41468;48.838;9.330;2023-02-19T11:56:40;99146.59;;;11.23;71.03
55604;BME280;41468;48.838;9.330;2023-02-19T11:59:37;99159.06;;;11.20;70.00
55604;BME280;41468;48.838;9.330;2023-02-19T12:02:28;99145.22;;;11.29;71.21
55604;BME280;41468;48.838;9.330;2023-02-19T12:05:24;99164.31;;;11.13;71.28
55604;BME280;41468;48.838;9.330;2023-02-19T12:08:16;99157.38;;;11.16;72.17
55604;BME280;41468;48.838;9.330;2023-02-19T12:22:11;99152.84;;;11.08;71.28
55604;BME280;41468;48.838;9.330;2023-02-19T12:24:54;99138.69;;;11.18;67.94
55604;BME280;41468;48.838;9.330;2023-02-19T12:27:51;99133.88;;;11.15;68.60
55604;BME280;41468;48.838;9.330;2023-02-19T12:38:48;99130.28;;;11.11;72.27
55604;BME280;41468;48.838;9.330;2023-02-19T12:41:38;99140.31;;;11.06;72.54
55604;BME280;41468;48.838;9.330;2023-02-19T12:44:14;99142.47;;;11.13;71.31
55604;BME280;41468;48.838;9.330;2023-02-19T12:46:48;99129.38;;;11.06;70.07
55604;BME280;41468;48.838;9.330;2023-02-19T12:49:26;99139.19;;;11.08;68.50
55604;BME280;41468;48.838;9.330;2023-02-19T12:52:11;99146.44;;;11.16;70.77
55604;BME280;41468;48.838;9.330;2023-02-19T12:54:53;99148.19;;;11.24;70.29
55604;BME280;41468;48.838;9.330;2023-02-19T12:57:24;99140.25;;;11.19;70.24
55604;BME280;41468;48.838;9.330;2023-02-19T13:00:08;99144.25;;;11.37;70.72
55604;BME280;41468;48.838;9.330;2023-02-19T13:02:49;99116.63;;;11.42;69.61
55604;BME280;41468;48.838;9.330;2023-02-19T13:07:58;99135.06;;;11.45;69.75
55604;BME280;41468;48.838;9.330;2023-02-19T13:10:35;99138.06;;;11.24;68.59
55604;BME280;41468;48.838;9.330;2023-02-19T13:13:11;99132.13;;;11.22;68.98
55604;BME280;41468;48.838;9.330;2023-02-19T13:15:42;99126.22;;;11.04;68.43
55604;BME280;41468;48.838;9.330;2023-02-19T13:18:27;99120.47;;;10.94;70.23
55604;BME280;41468;48.838;9.330;2023-02-19T13:20:55;99129.00;;;10.92;71.47
55604;BME280;41468;48.838;9.330;2023-02-19T13:23:32;99127.25;;;10.84;70.10
55604;BME280;41468;48.838;9.330;2023-02-19T13:26:46;99129.69;;;10.73;72.22
55604;BME280;41468;48.838;9.330;2023-02-19T13:29:30;99125.63;;;10.67;71.34
55604;BME280;41468;48.838;9.330;2023-02-19T13:32:17;99140.00;;;10.80;70.75
55604;BME280;41468;48.838;9.330;2023-02-19T13:35:25;99133.66;;;10.76;70.30
55604;BME280;41468;48.838;9.330;2023-02-19T13:37:54;99134.44;;;10.76;70.73
55604;BME280;41468;48.838;9.330;2023-02-19T13:40:36;99136.59;;;10.83;72.08
55604;BME280;41468;48.838;9.330;2023-02-19T13:46:08;99134.28;;;10.85;74.35
55604;BME280;41468;48.838;9.330;2023-02-19T13:48:37;99131.16;;;10.99;73.47
55604;BME280;41468;48.838;9.330;2023-02-19T13:59:22;99141.16;;;10.51;80.03
55604;BME280;41468;48.838;9.330;2023-02-19T14:14:36;99129.13;;;10.39;86.05
55604;BME280;41468;48.838;9.330;2023-02-19T14:23:13;99126.66;;;10.63;83.69
55604;BME280;41468;48.838;9.330;2023-02-19T14:25:43;99131.88;;;10.68;82.73
55604;BME280;41468;48.838;9.330;2023-02-19T14:28:30;99123.72;;;10.55;79.79
55604;BME280;41468;48.838;9.330;2023-02-19T14:31:02;99139.28;;;10.67;79.19
55604;BME280;41468;48.838;9.330;2023-02-19T14:33:37;99140.59;;;10.73;79.18
55604;BME280;41468;48.838;9.330;2023-02-19T14:36:16;99148.34;;;10.71;78.32
55604;BME280;41468;48.838;9.330;2023-02-19T14:38:50;99135.06;;;10.70;78.65
55604;BME280;41468;48.838;9.330;2023-02-19T14:41:19;99140.44;;;10.82;79.23
55604;BME280;41468;48.838;9.330;2023-02-19T14:43:51;99137.53;;;10.75;77.36
55604;BME280;41468;48.838;9.330;2023-02-19T14:46:31;99138.31;;;10.75;77.63
55604;BME280;41468;48.838;9.330;2023-02-19T14:49:16;99148.47;;;10.75;77.19
55604;BME280;41468;48.838;9.330;2023-02-19T14:51:47;99148.19;;;10.80;77.30